PORTS® Data Listing: 8720233 Blount Island Command, FL

CO-OPS RAW PORTS DATA

************************      PRELIMINARY DATA      ************************** 

     THIS RAW DATA HAS NOT BEEN SUBJECT TO THE NATIONAL OCEAN SERVICE'S        
     QUALITY CONTROL OR QUALITY ASSURANCE PROCEDURES AND DOES NOT MEET         
     THE CRITERIA AND STANDARDS OF OFFICIAL NATIONAL OCEAN SERVICE             
     DATA.  IT IS RELEASED FOR LIMITED PUBLIC USE AS PRELIMINARY DATA TO       
     BE USED ONLY WITH APPROPRIATE CAUTION.                                    

************************      PRELIMINARY DATA      ************************** 


       CD   -   Calendar date
       T    -   Time
       TZ   -   Timezone
       PW   -   Predicted water level (feet above MLLW)
       OW   -   Observed water level (feet above MLLW)
       WS   -   Wind speed (knots)
       WD   -   Wind direction (degrees true)
       WG   -   Wind gust (knots)
       AT   -   Air temperature (degrees farenheit)
       WT   -   Water temperature (degrees farenheit)
       AP   -   Air pressure (millibars)
       SA   -   Salinty (PSU - Practical Salinity Units)
       SG   -   Specific gravity
       RH   -   Relative humidity
       AG   -   Air gap (feet)
       VI   -   Visibility (nautical miles)

       ** NOTE **
       A variable that has its data fields filled with "9"s, indicates that
       data was not collected for that sample period.
       **********


STATION NAME: Blount Island Command (8720233)
****************************************************************************************************
    CD       T    TZ    PW     OW    WS   WD   WG    AT    WT    AP    SA    SG     RH    AG   VI
****************************************************************************************************
2019/12/05 12:00 EST  -99.99 -99.99    4   23   10  61.9 -99.9 1021.3 -9.9 -9.999  37.1 -99.99  5.40
2019/12/05 12:06 EST  -99.99 -99.99    7  348   10  62.1 -99.9 1021.2 -9.9 -9.999  38.0 -99.99  5.40
2019/12/05 12:12 EST  -99.99 -99.99    3  349    7  62.6 -99.9 1021.0 -9.9 -9.999  35.4 -99.99  5.40
2019/12/05 12:18 EST  -99.99 -99.99    2   38    5  63.1 -99.9 1021.0 -9.9 -9.999  35.0 -99.99  5.40
2019/12/05 12:24 EST  -99.99 -99.99    3    3    8  64.0 -99.9 1020.9 -9.9 -9.999  33.2 -99.99  5.40
2019/12/05 12:30 EST  -99.99 -99.99    5   14    7  63.3 -99.9 1020.8 -9.9 -9.999  33.2 -99.99  5.40
2019/12/05 12:36 EST  -99.99 -99.99    4  353    6  63.1 -99.9 1020.8 -9.9 -9.999  32.3 -99.99  5.40
2019/12/05 12:42 EST  -99.99 -99.99    6   24    8  63.9 -99.9 1020.8 -9.9 -9.999  31.4 -99.99  5.40
2019/12/05 12:48 EST  -99.99 -99.99    2   41    6  63.1 -99.9 1020.8 -9.9 -9.999  31.9 -99.99  5.40
2019/12/05 12:54 EST  -99.99 -99.99    4   34    6  64.8 -99.9 1020.6 -9.9 -9.999  31.8 -99.99  5.40
2019/12/05 13:00 EST  -99.99 -99.99    5   38    7  64.4 -99.9 1020.6 -9.9 -9.999  33.8 -99.99  5.40
2019/12/05 13:06 EST  -99.99 -99.99    4   22    8  63.7 -99.9 1020.6 -9.9 -9.999  33.0 -99.99  5.40
2019/12/05 13:12 EST  -99.99 -99.99    6   23    8  63.7 -99.9 1020.5 -9.9 -9.999  30.6 -99.99  5.40
2019/12/05 13:18 EST  -99.99 -99.99    6   16    9  64.2 -99.9 1020.5 -9.9 -9.999  31.0 -99.99  5.40
2019/12/05 13:24 EST  -99.99 -99.99    7   42    8  64.2 -99.9 1020.5 -9.9 -9.999  32.4 -99.99  5.40
2019/12/05 13:30 EST  -99.99 -99.99    4   44    7  64.0 -99.9 1020.6 -9.9 -9.999  32.1 -99.99  5.40
2019/12/05 13:36 EST  -99.99 -99.99    6   22    8  64.2 -99.9 1020.5 -9.9 -9.999  32.2 -99.99  5.40
2019/12/05 13:42 EST  -99.99 -99.99    2   33    6  64.2 -99.9 1020.6 -9.9 -9.999  32.2 -99.99  5.40
2019/12/05 13:48 EST  -99.99 -99.99    7   37    9  64.8 -99.9 1020.5 -9.9 -9.999  31.6 -99.99  5.40
2019/12/05 13:54 EST  -99.99 -99.99    8   48   10  64.4 -99.9 1020.6 -9.9 -9.999  36.4 -99.99  5.40
2019/12/05 14:00 EST  -99.99 -99.99    7   49    9  64.0 -99.9 1020.5 -9.9 -9.999  37.1 -99.99  5.40
2019/12/05 14:06 EST  -99.99 -99.99    8   42   10  64.2 -99.9 1020.6 -9.9 -9.999  36.8 -99.99  5.40
2019/12/05 14:12 EST  -99.99 -99.99    7   73   10  63.9 -99.9 1020.5 -9.9 -9.999  35.9 -99.99  5.40
2019/12/05 14:18 EST  -99.99 -99.99    7   44    9  64.4 -99.9 1020.4 -9.9 -9.999  34.2 -99.99  5.40
2019/12/05 14:24 EST  -99.99 -99.99    9   59   12  63.9 -99.9 1020.5 -9.9 -9.999  33.5 -99.99  5.40
2019/12/05 14:30 EST  -99.99 -99.99    8   49   11  63.5 -99.9 1020.5 -9.9 -9.999  34.8 -99.99  5.40
2019/12/05 14:36 EST  -99.99 -99.99    9   56   11  63.3 -99.9 1020.5 -9.9 -9.999  35.6 -99.99  5.40
2019/12/05 14:42 EST  -99.99 -99.99    8   55   10  63.1 -99.9 1020.5 -9.9 -9.999  36.0 -99.99  5.40
2019/12/05 14:48 EST  -99.99 -99.99    8   48   10  63.5 -99.9 1020.6 -9.9 -9.999  36.0 -99.99  5.40
2019/12/05 14:54 EST  -99.99 -99.99    7   64   10  63.5 -99.9 1020.6 -9.9 -9.999  37.0 -99.99  5.40
2019/12/05 15:00 EST  -99.99 -99.99    8   52   11  63.3 -99.9 1020.5 -9.9 -9.999  37.4 -99.99  5.40
2019/12/05 15:06 EST  -99.99 -99.99    8   51   11  62.8 -99.9 1020.7 -9.9 -9.999  37.8 -99.99  5.40
2019/12/05 15:12 EST  -99.99 -99.99    8   52   11  62.8 -99.9 1020.7 -9.9 -9.999  37.9 -99.99  5.40
2019/12/05 15:18 EST  -99.99 -99.99    8   64   11  62.6 -99.9 1020.7 -9.9 -9.999  39.6 -99.99  5.40
2019/12/05 15:24 EST  -99.99 -99.99    6   67    9  62.4 -99.9 1020.7 -9.9 -9.999  40.5 -99.99  5.40
2019/12/05 15:30 EST  -99.99 -99.99    7   66   10  62.8 -99.9 1020.8 -9.9 -9.999  42.4 -99.99  5.40
2019/12/05 15:36 EST  -99.99 -99.99    7   80   10  62.2 -99.9 1020.9 -9.9 -9.999  44.3 -99.99  5.40
2019/12/05 15:42 EST  -99.99 -99.99    7   67    9  62.6 -99.9 1020.9 -9.9 -9.999  43.7 -99.99  5.40
2019/12/05 15:48 EST  -99.99 -99.99    6   60    8  61.9 -99.9 1021.0 -9.9 -9.999  42.8 -99.99  5.40
2019/12/05 15:54 EST  -99.99 -99.99    7   46    9  61.9 -99.9 1021.0 -9.9 -9.999  44.6 -99.99  5.40
2019/12/05 16:00 EST  -99.99 -99.99    6   55    9  61.3 -99.9 1021.1 -9.9 -9.999  45.7 -99.99  5.40
2019/12/05 16:06 EST  -99.99 -99.99    6   52    9  61.3 -99.9 1021.2 -9.9 -9.999  47.5 -99.99  5.40
2019/12/05 16:12 EST  -99.99 -99.99    6   60    7  61.0 -99.9 1021.2 -9.9 -9.999  51.5 -99.99  5.40
2019/12/05 16:18 EST  -99.99 -99.99    6   54    7  60.8 -99.9 1021.3 -9.9 -9.999  53.4 -99.99  5.40
2019/12/05 16:24 EST  -99.99 -99.99    6   54    8  60.6 -99.9 1021.4 -9.9 -9.999  54.2 -99.99  5.40
2019/12/05 16:30 EST  -99.99 -99.99    6   60    8  60.4 -99.9 1021.4 -9.9 -9.999  54.6 -99.99  5.40
2019/12/05 16:36 EST  -99.99 -99.99    7   67    8  60.4 -99.9 1021.4 -9.9 -9.999  53.9 -99.99  5.40
2019/12/05 16:42 EST  -99.99 -99.99    6   63    8  60.8 -99.9 1021.4 -9.9 -9.999  53.8 -99.99  5.40
2019/12/05 16:48 EST  -99.99 -99.99    6   69    8  60.4 -99.9 1021.4 -9.9 -9.999  54.2 -99.99  5.40
2019/12/05 16:54 EST  -99.99 -99.99    6   59    7  60.1 -99.9 1021.4 -9.9 -9.999  55.5 -99.99  5.40
2019/12/05 17:00 EST  -99.99 -99.99    5   63    7  59.9 -99.9 1021.5 -9.9 -9.999  57.6 -99.99  5.40
2019/12/05 17:06 EST  -99.99 -99.99    6   62    7  59.7 -99.9 1021.5 -9.9 -9.999  58.9 -99.99  5.40
2019/12/05 17:12 EST  -99.99 -99.99    5   59    8  59.5 -99.9 1021.7 -9.9 -9.999  59.3 -99.99  5.40
2019/12/05 17:18 EST  -99.99 -99.99    5   57    7  59.2 -99.9 1021.7 -9.9 -9.999  60.7 -99.99  5.40
2019/12/05 17:24 EST  -99.99 -99.99    5   55    6  59.0 -99.9 1021.8 -9.9 -9.999  61.5 -99.99  5.40
2019/12/05 17:30 EST  -99.99 -99.99    4   54    6  58.6 -99.9 1021.8 -9.9 -9.999  63.1 -99.99  5.40
2019/12/05 17:36 EST  -99.99 -99.99    4   54    5  58.5 -99.9 1021.9 -9.9 -9.999  64.1 -99.99  5.40
2019/12/05 17:42 EST  -99.99 -99.99    4   54    5  58.1 -99.9 1021.8 -9.9 -9.999  64.9 -99.99  5.40
2019/12/05 17:48 EST  -99.99 -99.99    3   59    4  57.7 -99.9 1021.9 -9.9 -9.999  65.9 -99.99  5.40
2019/12/05 17:54 EST  -99.99 -99.99    4   65    5  57.6 -99.9 1021.9 -9.9 -9.999  66.3 -99.99  5.40
2019/12/05 18:00 EST  -99.99 -99.99    4   55    4  57.6 -99.9 1022.1 -9.9 -9.999  66.5 -99.99  5.40
2019/12/05 18:06 EST  -99.99 -99.99    4   56    4  57.4 -99.9 1022.1 -9.9 -9.999  67.6 -99.99  5.40
2019/12/05 18:12 EST  -99.99 -99.99    4   47    4  57.0 -99.9 1022.2 -9.9 -9.999  69.0 -99.99  5.40
2019/12/05 18:18 EST  -99.99 -99.99    3   46    5  57.2 -99.9 1022.2 -9.9 -9.999  70.0 -99.99  5.40
2019/12/05 18:24 EST  -99.99 -99.99    3   49    4  57.0 -99.9 1022.3 -9.9 -9.999  70.5 -99.99  5.40
2019/12/05 18:30 EST  -99.99 -99.99    3   43    4  57.0 -99.9 1022.4 -9.9 -9.999  70.9 -99.99  5.40
2019/12/05 18:36 EST  -99.99 -99.99    3   46    4  56.8 -99.9 1022.5 -9.9 -9.999  71.4 -99.99  5.40
2019/12/05 18:42 EST  -99.99 -99.99    2   42    3  56.7 -99.9 1022.6 -9.9 -9.999  71.8 -99.99  5.40
2019/12/05 18:48 EST  -99.99 -99.99    2   42    3  56.7 -99.9 1022.8 -9.9 -9.999  72.7 -99.99  5.40
2019/12/05 18:54 EST  -99.99 -99.99    3   39    3  56.3 -99.9 1022.8 -9.9 -9.999  73.7 -99.99  5.40
2019/12/05 19:00 EST  -99.99 -99.99    4   44    4  55.9 -99.9 1022.8 -9.9 -9.999  75.2 -99.99  5.40
2019/12/05 19:06 EST  -99.99 -99.99    3   46    4  55.6 -99.9 1022.8 -9.9 -9.999  78.3 -99.99  5.40
2019/12/05 19:12 EST  -99.99 -99.99    4   42    4  55.8 -99.9 1022.8 -9.9 -9.999  78.9 -99.99  5.40
2019/12/05 19:18 EST  -99.99 -99.99    4   43    4  55.8 -99.9 1022.8 -9.9 -9.999  80.1 -99.99  5.40
2019/12/05 19:24 EST  -99.99 -99.99    4   39    4  55.8 -99.9 1022.8 -9.9 -9.999  84.4 -99.99  5.40
2019/12/05 19:30 EST  -99.99 -99.99    4   45    5  55.8 -99.9 1022.9 -9.9 -9.999  86.7 -99.99  5.40
2019/12/05 19:36 EST  -99.99 -99.99    4   55    4  55.6 -99.9 1022.9 -9.9 -9.999  88.2 -99.99  5.40
2019/12/05 19:42 EST  -99.99 -99.99    3   53    4  55.2 -99.9 1022.9 -9.9 -9.999  90.0 -99.99  5.40
2019/12/05 19:48 EST  -99.99 -99.99    3   62    4  55.2 -99.9 1022.9 -9.9 -9.999  89.7 -99.99  5.40
2019/12/05 19:54 EST  -99.99 -99.99    3   57    4  55.0 -99.9 1022.9 -9.9 -9.999  89.2 -99.99  5.40
2019/12/05 20:00 EST  -99.99 -99.99    3   65    4  54.9 -99.9 1022.9 -9.9 -9.999  89.2 -99.99  5.40
2019/12/05 20:06 EST  -99.99 -99.99    3   61    4  54.9 -99.9 1022.9 -9.9 -9.999  89.7 -99.99  5.40
2019/12/05 20:12 EST  -99.99 -99.99    4   56    5  54.7 -99.9 1022.9 -9.9 -9.999  90.1 -99.99  5.40
2019/12/05 20:18 EST  -99.99 -99.99    5   48    6  54.5 -99.9 1022.9 -9.9 -9.999  91.2 -99.99  5.40
2019/12/05 20:24 EST  -99.99 -99.99    4   55    5  54.9 -99.9 1022.8 -9.9 -9.999  92.4 -99.99  5.40
2019/12/05 20:30 EST  -99.99 -99.99    5   62    6  54.7 -99.9 1022.8 -9.9 -9.999  92.1 -99.99  5.40
2019/12/05 20:36 EST  -99.99 -99.99    4   72    5  54.9 -99.9 1022.9 -9.9 -9.999  91.3 -99.99  5.40
2019/12/05 20:42 EST  -99.99 -99.99    3   73    5  55.0 -99.9 1023.0 -9.9 -9.999  90.7 -99.99  5.40
2019/12/05 20:48 EST  -99.99 -99.99    4   76    4  55.2 -99.9 1023.0 -9.9 -9.999  89.6 -99.99  5.40
2019/12/05 20:54 EST  -99.99 -99.99    4   75    5  55.4 -99.9 1023.1 -9.9 -9.999  88.3 -99.99  5.40
2019/12/05 21:00 EST  -99.99 -99.99    4   72    5  55.6 -99.9 1023.1 -9.9 -9.999  87.5 -99.99  5.40
2019/12/05 21:06 EST  -99.99 -99.99    4   69    4  55.2 -99.9 1023.2 -9.9 -9.999  87.4 -99.99  5.40
2019/12/05 21:12 EST  -99.99 -99.99    4   56    4  55.2 -99.9 1023.2 -9.9 -9.999  88.9 -99.99  5.40
2019/12/05 21:18 EST  -99.99 -99.99    3   57    4  55.4 -99.9 1023.2 -9.9 -9.999  89.9 -99.99  5.40
2019/12/05 21:24 EST  -99.99 -99.99    3   50    4  55.2 -99.9 1023.3 -9.9 -9.999  90.3 -99.99  5.40
2019/12/05 21:30 EST  -99.99 -99.99    3   44    4  55.0 -99.9 1023.4 -9.9 -9.999  91.0 -99.99  5.40
2019/12/05 21:36 EST  -99.99 -99.99    2   40    3  54.7 -99.9 1023.4 -9.9 -9.999  92.5 -99.99  5.40
2019/12/05 21:42 EST  -99.99 -99.99    3   30    3  54.5 -99.9 1023.5 -9.9 -9.999  92.9 -99.99  5.40
2019/12/05 21:48 EST  -99.99 -99.99    3   17    3  54.5 -99.9 1023.5 -9.9 -9.999  93.6 -99.99  5.40
2019/12/05 21:54 EST  -99.99 -99.99    3   20    3  54.3 -99.9 1023.6 -9.9 -9.999  94.1 -99.99  5.40
2019/12/05 22:00 EST  -99.99 -99.99    3   30    3  54.3 -99.9 1023.5 -9.9 -9.999  94.1 -99.99  5.40
2019/12/05 22:06 EST  -99.99 -99.99    2   20    3  54.3 -99.9 1023.5 -9.9 -9.999  95.0 -99.99  5.40
2019/12/05 22:12 EST  -99.99 -99.99    2   36    3  54.0 -99.9 1023.6 -9.9 -9.999  96.3 -99.99  5.40
2019/12/05 22:18 EST  -99.99 -99.99    2   28    2  54.3 -99.9 1023.6 -9.9 -9.999  98.0 -99.99  5.40
2019/12/05 22:24 EST  -99.99 -99.99    1   36    2  54.0 -99.9 1023.7 -9.9 -9.999  99.5 -99.99  5.40
2019/12/05 22:30 EST  -99.99 -99.99    0   36    1  53.8 -99.9 1023.7 -9.9 -9.999 100.0 -99.99  5.40
2019/12/05 22:36 EST  -99.99 -99.99    1  212    2  53.8 -99.9 1023.7 -9.9 -9.999 100.0 -99.99  5.40
2019/12/05 22:42 EST  -99.99 -99.99    1  230    1  54.0 -99.9 1023.6 -9.9 -9.999 100.0 -99.99  5.40
2019/12/05 22:48 EST  -99.99 -99.99    1  227    2  53.8 -99.9 1023.7 -9.9 -9.999 100.0 -99.99  5.40
2019/12/05 22:54 EST  -99.99 -99.99    2  204    2  53.8 -99.9 1023.7 -9.9 -9.999 100.0 -99.99  5.40
2019/12/05 23:00 EST  -99.99 -99.99    2  197    3  53.1 -99.9 1023.6 -9.9 -9.999 100.0 -99.99  5.40
2019/12/05 23:06 EST  -99.99 -99.99    2  224    3  52.7 -99.9 1023.6 -9.9 -9.999 100.0 -99.99  5.40
2019/12/05 23:12 EST  -99.99 -99.99    2  222    2  52.7 -99.9 1023.6 -9.9 -9.999 100.0 -99.99  5.40
2019/12/05 23:18 EST  -99.99 -99.99    2  224    2  52.5 -99.9 1023.6 -9.9 -9.999 100.0 -99.99  5.40
2019/12/05 23:24 EST  -99.99 -99.99    2  220    2  52.7 -99.9 1023.6 -9.9 -9.999 100.0 -99.99  5.40
2019/12/05 23:30 EST  -99.99 -99.99    0  220    1  52.3 -99.9 1023.6 -9.9 -9.999 100.0 -99.99  5.40
2019/12/05 23:36 EST  -99.99 -99.99    1  220    1  52.3 -99.9 1023.7 -9.9 -9.999 100.0 -99.99  5.40
2019/12/05 23:42 EST  -99.99 -99.99    1  230    1  52.7 -99.9 1023.7 -9.9 -9.999 100.0 -99.99  5.40
2019/12/05 23:48 EST  -99.99 -99.99    0  230    1  52.7 -99.9 1023.8 -9.9 -9.999 100.0 -99.99  5.40
2019/12/05 23:54 EST  -99.99 -99.99    1  276    2  52.2 -99.9 1023.8 -9.9 -9.999 100.0 -99.99  5.40
2019/12/06 00:00 EST  -99.99 -99.99    2  254    2  52.3 -99.9 1023.8 -9.9 -9.999 100.0 -99.99  5.40
2019/12/06 00:06 EST  -99.99 -99.99    2  282    2  52.3 -99.9 1023.8 -9.9 -9.999 100.0 -99.99  5.40
2019/12/06 00:12 EST  -99.99 -99.99    1  258    2  52.2 -99.9 1023.7 -9.9 -9.999 100.0 -99.99  5.40
2019/12/06 00:18 EST  -99.99 -99.99    0  257    1  52.3 -99.9 1023.7 -9.9 -9.999 100.0 -99.99  5.40
2019/12/06 00:24 EST  -99.99 -99.99    0  258    0  53.1 -99.9 1023.7 -9.9 -9.999 100.0 -99.99  5.40
2019/12/06 00:30 EST  -99.99 -99.99    2  313    2  52.5 -99.9 1023.7 -9.9 -9.999 100.0 -99.99  5.40
2019/12/06 00:36 EST  -99.99 -99.99    1  317    2  52.0 -99.9 1023.7 -9.9 -9.999 100.0 -99.99  5.40
2019/12/06 00:42 EST  -99.99 -99.99    2  310    2  51.8 -99.9 1023.7 -9.9 -9.999 100.0 -99.99 -9.99
2019/12/06 00:48 EST  -99.99 -99.99    1  301    2  51.4 -99.9 1023.8 -9.9 -9.999 100.0 -99.99 -9.99
2019/12/06 00:54 EST  -99.99 -99.99    1  296    2  51.4 -99.9 1023.8 -9.9 -9.999 100.0 -99.99 -9.99
2019/12/06 01:00 EST  -99.99 -99.99    2  297    2  51.4 -99.9 1023.8 -9.9 -9.999 100.0 -99.99 -9.99
2019/12/06 01:06 EST  -99.99 -99.99    2  293    2  51.4 -99.9 1023.8 -9.9 -9.999 100.0 -99.99 -9.99
2019/12/06 01:12 EST  -99.99 -99.99    1  293    2  51.3 -99.9 1023.7 -9.9 -9.999 100.0 -99.99 -9.99
2019/12/06 01:18 EST  -99.99 -99.99    1  293    1  51.1 -99.9 1023.8 -9.9 -9.999 100.0 -99.99 -9.99
2019/12/06 01:24 EST  -99.99 -99.99    2  290    2  51.1 -99.9 1023.7 -9.9 -9.999 100.0 -99.99 -9.99
2019/12/06 01:30 EST  -99.99 -99.99    1  289    2  51.1 -99.9 1023.8 -9.9 -9.999 100.0 -99.99 -9.99
2019/12/06 01:36 EST  -99.99 -99.99    1  289    1  50.9 -99.9 1023.8 -9.9 -9.999 100.0 -99.99 -9.99
2019/12/06 01:42 EST  -99.99 -99.99    1  316    2  50.7 -99.9 1023.8 -9.9 -9.999 100.0 -99.99 -9.99
2019/12/06 01:48 EST  -99.99 -99.99    1  332    2  50.7 -99.9 1023.8 -9.9 -9.999 100.0 -99.99  5.40
2019/12/06 01:54 EST  -99.99 -99.99    0  327    1  50.7 -99.9 1023.9 -9.9 -9.999 100.0 -99.99  5.40
2019/12/06 02:00 EST  -99.99 -99.99    1  309    1  50.7 -99.9 1023.8 -9.9 -9.999 100.0 -99.99  5.40
2019/12/06 02:06 EST  -99.99 -99.99    0  309    1  50.9 -99.9 1023.9 -9.9 -9.999 100.0 -99.99  5.40
2019/12/06 02:12 EST  -99.99 -99.99    1  309    1  50.5 -99.9 1023.7 -9.9 -9.999 100.0 -99.99  5.40
2019/12/06 02:18 EST  -99.99 -99.99    1  309    1  50.7 -99.9 1023.7 -9.9 -9.999 100.0 -99.99  5.40
2019/12/06 02:24 EST  -99.99 -99.99    1  309    1  50.9 -99.9 1023.7 -9.9 -9.999 100.0 -99.99  5.40
2019/12/06 02:30 EST  -99.99 -99.99    1  315    2  50.5 -99.9 1023.7 -9.9 -9.999 100.0 -99.99  5.40
2019/12/06 02:36 EST  -99.99 -99.99    2  288    2  50.5 -99.9 1023.6 -9.9 -9.999 100.0 -99.99  5.40
2019/12/06 02:42 EST  -99.99 -99.99    2  296    2  50.7 -99.9 1023.6 -9.9 -9.999 100.0 -99.99  5.40
2019/12/06 02:48 EST  -99.99 -99.99    1  304    2  50.7 -99.9 1023.6 -9.9 -9.999 100.0 -99.99  5.40
2019/12/06 02:54 EST  -99.99 -99.99    2  308    2  50.5 -99.9 1023.5 -9.9 -9.999 100.0 -99.99  5.40
2019/12/06 03:00 EST  -99.99 -99.99    2  308    2  50.4 -99.9 1023.5 -9.9 -9.999 100.0 -99.99  5.40
2019/12/06 03:06 EST  -99.99 -99.99    1  326    2  50.2 -99.9 1023.4 -9.9 -9.999 100.0 -99.99  5.40
2019/12/06 03:12 EST  -99.99 -99.99    2  315    2  50.4 -99.9 1023.3 -9.9 -9.999 100.0 -99.99  5.40
2019/12/06 03:18 EST  -99.99 -99.99    2  307    2  50.2 -99.9 1023.3 -9.9 -9.999 100.0 -99.99  5.40
2019/12/06 03:24 EST  -99.99 -99.99    2  315    3  50.2 -99.9 1023.3 -9.9 -9.999 100.0 -99.99  5.40
2019/12/06 03:30 EST  -99.99 -99.99    2  302    3  50.2 -99.9 1023.3 -9.9 -9.999 100.0 -99.99  5.40
2019/12/06 03:36 EST  -99.99 -99.99    1  322    2  50.0 -99.9 1023.3 -9.9 -9.999 100.0 -99.99  5.40
2019/12/06 03:42 EST  -99.99 -99.99    2  301    2  50.0 -99.9 1023.3 -9.9 -9.999 100.0 -99.99  5.40
2019/12/06 03:48 EST  -99.99 -99.99    2  293    3  50.0 -99.9 1023.3 -9.9 -9.999 100.0 -99.99  5.40
2019/12/06 03:54 EST  -99.99 -99.99    1  283    2  50.0 -99.9 1023.3 -9.9 -9.999 100.0 -99.99  5.40
2019/12/06 04:00 EST  -99.99 -99.99    1  294    2  50.0 -99.9 1023.3 -9.9 -9.999 100.0 -99.99  5.40
2019/12/06 04:06 EST  -99.99 -99.99    2  302    3  49.8 -99.9 1023.2 -9.9 -9.999 100.0 -99.99  5.40
2019/12/06 04:12 EST  -99.99 -99.99    1  312    3  49.8 -99.9 1023.2 -9.9 -9.999 100.0 -99.99  5.40
2019/12/06 04:18 EST  -99.99 -99.99    2  312    2  49.8 -99.9 1023.1 -9.9 -9.999 100.0 -99.99  5.40
2019/12/06 04:24 EST  -99.99 -99.99    1  306    2  49.6 -99.9 1023.1 -9.9 -9.999 100.0 -99.99  5.40
2019/12/06 04:30 EST  -99.99 -99.99    2  296    2  49.5 -99.9 1023.1 -9.9 -9.999 100.0 -99.99  5.40
2019/12/06 04:36 EST  -99.99 -99.99    2  296    3  49.6 -99.9 1023.1 -9.9 -9.999 100.0 -99.99  5.40
2019/12/06 04:42 EST  -99.99 -99.99    2  314    3  49.5 -99.9 1023.1 -9.9 -9.999 100.0 -99.99  5.40
2019/12/06 04:48 EST  -99.99 -99.99    2  331    2  49.5 -99.9 1023.1 -9.9 -9.999 100.0 -99.99  5.40
2019/12/06 04:54 EST  -99.99 -99.99    2  349    2  49.6 -99.9 1023.1 -9.9 -9.999 100.0 -99.99  5.40
2019/12/06 05:00 EST  -99.99 -99.99    2  341    3  49.6 -99.9 1023.1 -9.9 -9.999 100.0 -99.99  5.40
2019/12/06 05:06 EST  -99.99 -99.99    1  340    2  49.6 -99.9 1023.1 -9.9 -9.999 100.0 -99.99  5.40
2019/12/06 05:12 EST  -99.99 -99.99    1  316    1  49.5 -99.9 1023.2 -9.9 -9.999 100.0 -99.99  5.40
2019/12/06 05:18 EST  -99.99 -99.99    1  289    2  49.5 -99.9 1023.2 -9.9 -9.999 100.0 -99.99  5.40
2019/12/06 05:24 EST  -99.99 -99.99    1  303    1  49.3 -99.9 1023.2 -9.9 -9.999 100.0 -99.99  5.40
2019/12/06 05:30 EST  -99.99 -99.99    0  283    1  49.1 -99.9 1023.3 -9.9 -9.999 100.0 -99.99  5.40
2019/12/06 05:36 EST  -99.99 -99.99    1  303    2  49.3 -99.9 1023.3 -9.9 -9.999 100.0 -99.99  5.40
2019/12/06 05:42 EST  -99.99 -99.99    2  316    2  49.1 -99.9 1023.3 -9.9 -9.999 100.0 -99.99  5.40
2019/12/06 05:48 EST  -99.99 -99.99    2  315    3  48.9 -99.9 1023.4 -9.9 -9.999 100.0 -99.99  5.40
2019/12/06 05:54 EST  -99.99 -99.99    1  285    2  48.9 -99.9 1023.5 -9.9 -9.999 100.0 -99.99  5.40
2019/12/06 06:00 EST  -99.99 -99.99 -999 -999 -999 -99.9 -99.9 -999.9 -9.9 -9.999 -99.9 -99.99 -9.99
2019/12/06 06:06 EST  -99.99 -99.99 -999 -999 -999 -99.9 -99.9 -999.9 -9.9 -9.999 -99.9 -99.99 -9.99
2019/12/06 06:12 EST  -99.99 -99.99 -999 -999 -999 -99.9 -99.9 -999.9 -9.9 -9.999 -99.9 -99.99 -9.99
2019/12/06 06:18 EST  -99.99 -99.99 -999 -999 -999 -99.9 -99.9 -999.9 -9.9 -9.999 -99.9 -99.99 -9.99
2019/12/06 06:24 EST  -99.99 -99.99 -999 -999 -999 -99.9 -99.9 -999.9 -9.9 -9.999 -99.9 -99.99 -9.99
2019/12/06 06:30 EST  -99.99 -99.99 -999 -999 -999 -99.9 -99.9 -999.9 -9.9 -9.999 -99.9 -99.99 -9.99
2019/12/06 06:36 EST  -99.99 -99.99 -999 -999 -999 -99.9 -99.9 -999.9 -9.9 -9.999 -99.9 -99.99 -9.99
2019/12/06 06:42 EST  -99.99 -99.99 -999 -999 -999 -99.9 -99.9 -999.9 -9.9 -9.999 -99.9 -99.99 -9.99
2019/12/06 06:48 EST  -99.99 -99.99 -999 -999 -999 -99.9 -99.9 -999.9 -9.9 -9.999 -99.9 -99.99 -9.99
2019/12/06 06:54 EST  -99.99 -99.99 -999 -999 -999 -99.9 -99.9 -999.9 -9.9 -9.999 -99.9 -99.99 -9.99
2019/12/06 07:00 EST  -99.99 -99.99 -999 -999 -999 -99.9 -99.9 -999.9 -9.9 -9.999 -99.9 -99.99 -9.99
2019/12/06 07:06 EST  -99.99 -99.99 -999 -999 -999 -99.9 -99.9 -999.9 -9.9 -9.999 -99.9 -99.99 -9.99
2019/12/06 07:12 EST  -99.99 -99.99 -999 -999 -999 -99.9 -99.9 -999.9 -9.9 -9.999 -99.9 -99.99 -9.99
2019/12/06 07:18 EST  -99.99 -99.99 -999 -999 -999 -99.9 -99.9 -999.9 -9.9 -9.999 -99.9 -99.99 -9.99
2019/12/06 07:24 EST  -99.99 -99.99 -999 -999 -999 -99.9 -99.9 -999.9 -9.9 -9.999 -99.9 -99.99 -9.99
2019/12/06 07:30 EST  -99.99 -99.99 -999 -999 -999 -99.9 -99.9 -999.9 -9.9 -9.999 -99.9 -99.99 -9.99
2019/12/06 07:36 EST  -99.99 -99.99 -999 -999 -999 -99.9 -99.9 -999.9 -9.9 -9.999 -99.9 -99.99 -9.99
2019/12/06 07:42 EST  -99.99 -99.99 -999 -999 -999 -99.9 -99.9 -999.9 -9.9 -9.999 -99.9 -99.99 -9.99
2019/12/06 07:48 EST  -99.99 -99.99 -999 -999 -999 -99.9 -99.9 -999.9 -9.9 -9.999 -99.9 -99.99 -9.99
2019/12/06 07:54 EST  -99.99 -99.99 -999 -999 -999 -99.9 -99.9 -999.9 -9.9 -9.999 -99.9 -99.99 -9.99
2019/12/06 08:00 EST  -99.99 -99.99 -999 -999 -999 -99.9 -99.9 -999.9 -9.9 -9.999 -99.9 -99.99 -9.99
2019/12/06 08:06 EST  -99.99 -99.99 -999 -999 -999 -99.9 -99.9 -999.9 -9.9 -9.999 -99.9 -99.99 -9.99
2019/12/06 08:12 EST  -99.99 -99.99 -999 -999 -999 -99.9 -99.9 -999.9 -9.9 -9.999 -99.9 -99.99 -9.99
2019/12/06 08:18 EST  -99.99 -99.99 -999 -999 -999 -99.9 -99.9 -999.9 -9.9 -9.999 -99.9 -99.99 -9.99
2019/12/06 08:24 EST  -99.99 -99.99 -999 -999 -999 -99.9 -99.9 -999.9 -9.9 -9.999 -99.9 -99.99 -9.99
2019/12/06 08:30 EST  -99.99 -99.99 -999 -999 -999 -99.9 -99.9 -999.9 -9.9 -9.999 -99.9 -99.99 -9.99
2019/12/06 08:36 EST  -99.99 -99.99 -999 -999 -999 -99.9 -99.9 -999.9 -9.9 -9.999 -99.9 -99.99 -9.99
2019/12/06 08:42 EST  -99.99 -99.99 -999 -999 -999 -99.9 -99.9 -999.9 -9.9 -9.999 -99.9 -99.99 -9.99
2019/12/06 08:48 EST  -99.99 -99.99 -999 -999 -999 -99.9 -99.9 -999.9 -9.9 -9.999 -99.9 -99.99 -9.99
2019/12/06 08:54 EST  -99.99 -99.99 -999 -999 -999 -99.9 -99.9 -999.9 -9.9 -9.999 -99.9 -99.99 -9.99
2019/12/06 09:00 EST  -99.99 -99.99 -999 -999 -999 -99.9 -99.9 -999.9 -9.9 -9.999 -99.9 -99.99 -9.99
2019/12/06 09:06 EST  -99.99 -99.99 -999 -999 -999 -99.9 -99.9 -999.9 -9.9 -9.999 -99.9 -99.99 -9.99
2019/12/06 09:12 EST  -99.99 -99.99 -999 -999 -999 -99.9 -99.9 -999.9 -9.9 -9.999 -99.9 -99.99 -9.99
2019/12/06 09:18 EST  -99.99 -99.99 -999 -999 -999 -99.9 -99.9 -999.9 -9.9 -9.999 -99.9 -99.99 -9.99
2019/12/06 09:24 EST  -99.99 -99.99 -999 -999 -999 -99.9 -99.9 -999.9 -9.9 -9.999 -99.9 -99.99 -9.99
2019/12/06 09:30 EST  -99.99 -99.99 -999 -999 -999 -99.9 -99.9 -999.9 -9.9 -9.999 -99.9 -99.99 -9.99
2019/12/06 09:36 EST  -99.99 -99.99 -999 -999 -999 -99.9 -99.9 -999.9 -9.9 -9.999 -99.9 -99.99 -9.99
2019/12/06 09:42 EST  -99.99 -99.99 -999 -999 -999 -99.9 -99.9 -999.9 -9.9 -9.999 -99.9 -99.99 -9.99
2019/12/06 09:48 EST  -99.99 -99.99 -999 -999 -999 -99.9 -99.9 -999.9 -9.9 -9.999 -99.9 -99.99 -9.99
2019/12/06 09:54 EST  -99.99 -99.99 -999 -999 -999 -99.9 -99.9 -999.9 -9.9 -9.999 -99.9 -99.99 -9.99
2019/12/06 10:00 EST  -99.99 -99.99 -999 -999 -999 -99.9 -99.9 -999.9 -9.9 -9.999 -99.9 -99.99 -9.99
2019/12/06 10:06 EST  -99.99 -99.99 -999 -999 -999 -99.9 -99.9 -999.9 -9.9 -9.999 -99.9 -99.99 -9.99
2019/12/06 10:12 EST  -99.99 -99.99 -999 -999 -999 -99.9 -99.9 -999.9 -9.9 -9.999 -99.9 -99.99 -9.99
2019/12/06 10:18 EST  -99.99 -99.99 -999 -999 -999 -99.9 -99.9 -999.9 -9.9 -9.999 -99.9 -99.99 -9.99
2019/12/06 10:24 EST  -99.99 -99.99 -999 -999 -999 -99.9 -99.9 -999.9 -9.9 -9.999 -99.9 -99.99 -9.99
2019/12/06 10:30 EST  -99.99 -99.99 -999 -999 -999 -99.9 -99.9 -999.9 -9.9 -9.999 -99.9 -99.99 -9.99
2019/12/06 10:36 EST  -99.99 -99.99 -999 -999 -999 -99.9 -99.9 -999.9 -9.9 -9.999 -99.9 -99.99 -9.99
2019/12/06 10:42 EST  -99.99 -99.99 -999 -999 -999 -99.9 -99.9 -999.9 -9.9 -9.999 -99.9 -99.99 -9.99
2019/12/06 10:48 EST  -99.99 -99.99 -999 -999 -999 -99.9 -99.9 -999.9 -9.9 -9.999 -99.9 -99.99 -9.99
2019/12/06 10:54 EST  -99.99 -99.99 -999 -999 -999 -99.9 -99.9 -999.9 -9.9 -9.999 -99.9 -99.99 -9.99
2019/12/06 11:00 EST  -99.99 -99.99 -999 -999 -999 -99.9 -99.9 -999.9 -9.9 -9.999 -99.9 -99.99 -9.99
2019/12/06 11:06 EST  -99.99 -99.99 -999 -999 -999 -99.9 -99.9 -999.9 -9.9 -9.999 -99.9 -99.99 -9.99
2019/12/06 11:12 EST  -99.99 -99.99 -999 -999 -999 -99.9 -99.9 -999.9 -9.9 -9.999 -99.9 -99.99 -9.99
2019/12/06 11:18 EST  -99.99 -99.99 -999 -999 -999 -99.9 -99.9 -999.9 -9.9 -9.999 -99.9 -99.99 -9.99
2019/12/06 11:24 EST  -99.99 -99.99 -999 -999 -999 -99.9 -99.9 -999.9 -9.9 -9.999 -99.9 -99.99 -9.99
2019/12/06 11:30 EST  -99.99 -99.99 -999 -999 -999 -99.9 -99.9 -999.9 -9.9 -9.999 -99.9 -99.99 -9.99
2019/12/06 11:36 EST  -99.99 -99.99 -999 -999 -999 -99.9 -99.9 -999.9 -9.9 -9.999 -99.9 -99.99 -9.99
2019/12/06 11:42 EST  -99.99 -99.99 -999 -999 -999 -99.9 -99.9 -999.9 -9.9 -9.999 -99.9 -99.99 -9.99
2019/12/06 11:48 EST  -99.99 -99.99 -999 -999 -999 -99.9 -99.9 -999.9 -9.9 -9.999 -99.9 -99.99 -9.99
2019/12/06 11:54 EST  -99.99 -99.99 -999 -999 -999 -99.9 -99.9 -999.9 -9.9 -9.999 -99.9 -99.99 -9.99
2019/12/06 12:00 EST  -99.99 -99.99 -999 -999 -999 -99.9 -99.9 -999.9 -9.9 -9.999 -99.9 -99.99 -9.99